sensor_id;sensor_type;location;lat;lon;timestamp;P1;durP1;ratioP1;P2;durP2;ratioP2
74269;SDS011;62754;48.252;11.654;2023-07-24T00:00:16;13.25;;;6.28;;
74269;SDS011;62754;48.252;11.654;2023-07-24T00:02:42;13.45;;;6.43;;
74269;SDS011;62754;48.252;11.654;2023-07-24T00:05:10;12.40;;;5.72;;
74269;SDS011;62754;48.252;11.654;2023-07-24T00:07:36;10.98;;;5.50;;
74269;SDS011;62754;48.252;11.654;2023-07-24T00:10:02;12.50;;;5.88;;
74269;SDS011;62754;48.252;11.654;2023-07-24T00:12:29;12.13;;;6.00;;
74269;SDS011;62754;48.252;11.654;2023-07-24T00:14:55;12.82;;;6.15;;
74269;SDS011;62754;48.252;11.654;2023-07-24T00:17:20;9.85;;;5.50;;
74269;SDS011;62754;48.252;11.654;2023-07-24T00:19:48;12.43;;;6.18;;
74269;SDS011;62754;48.252;11.654;2023-07-24T00:22:17;10.80;;;5.80;;
74269;SDS011;62754;48.252;11.654;2023-07-24T00:24:42;13.20;;;7.22;;
74269;SDS011;62754;48.252;11.654;2023-07-24T00:27:10;12.93;;;6.15;;
74269;SDS011;62754;48.252;11.654;2023-07-24T00:29:36;13.45;;;6.00;;
74269;SDS011;62754;48.252;11.654;2023-07-24T00:32:04;14.00;;;5.68;;
74269;SDS011;62754;48.252;11.654;2023-07-24T00:34:32;12.75;;;6.07;;
74269;SDS011;62754;48.252;11.654;2023-07-24T00:37:00;11.68;;;5.82;;
74269;SDS011;62754;48.252;11.654;2023-07-24T00:39:26;12.23;;;5.90;;
74269;SDS011;62754;48.252;11.654;2023-07-24T00:41:52;13.02;;;6.05;;
74269;SDS011;62754;48.252;11.654;2023-07-24T00:44:20;10.90;;;5.55;;
74269;SDS011;62754;48.252;11.654;2023-07-24T00:46:48;11.63;;;6.28;;
74269;SDS011;62754;48.252;11.654;2023-07-24T00:49:16;11.38;;;6.32;;
74269;SDS011;62754;48.252;11.654;2023-07-24T00:51:43;18.25;;;6.53;;
74269;SDS011;62754;48.252;11.654;2023-07-24T00:54:08;10.98;;;6.03;;
74269;SDS011;62754;48.252;11.654;2023-07-24T00:56:34;10.85;;;6.75;;
74269;SDS011;62754;48.252;11.654;2023-07-24T00:59:00;12.18;;;6.28;;
74269;SDS011;62754;48.252;11.654;2023-07-24T01:01:26;12.48;;;6.20;;
74269;SDS011;62754;48.252;11.654;2023-07-24T01:03:55;13.55;;;6.43;;
74269;SDS011;62754;48.252;11.654;2023-07-24T01:06:26;12.73;;;6.22;;
74269;SDS011;62754;48.252;11.654;2023-07-24T01:08:52;10.63;;;5.97;;
74269;SDS011;62754;48.252;11.654;2023-07-24T01:11:19;11.88;;;5.97;;
74269;SDS011;62754;48.252;11.654;2023-07-24T01:16:31;10.50;;;5.53;;
74269;SDS011;62754;48.252;11.654;2023-07-24T01:19:01;11.05;;;5.93;;
74269;SDS011;62754;48.252;11.654;2023-07-24T01:21:40;11.95;;;6.05;;
74269;SDS011;62754;48.252;11.654;2023-07-24T01:24:41;9.38;;;5.15;;
74269;SDS011;62754;48.252;11.654;2023-07-24T01:27:19;12.60;;;6.22;;
74269;SDS011;62754;48.252;11.654;2023-07-24T01:29:53;11.85;;;5.93;;
74269;SDS011;62754;48.252;11.654;2023-07-24T01:32:19;11.32;;;6.32;;
74269;SDS011;62754;48.252;11.654;2023-07-24T01:34:48;12.77;;;6.43;;
74269;SDS011;62754;48.252;11.654;2023-07-24T01:37:17;10.48;;;5.85;;
74269;SDS011;62754;48.252;11.654;2023-07-24T01:39:46;11.48;;;5.63;;
74269;SDS011;62754;48.252;11.654;2023-07-24T01:42:15;11.45;;;5.90;;
74269;SDS011;62754;48.252;11.654;2023-07-24T01:44:46;11.38;;;5.45;;
74269;SDS011;62754;48.252;11.654;2023-07-24T01:49:42;11.63;;;5.82;;
74269;SDS011;62754;48.252;11.654;2023-07-24T01:52:12;11.70;;;5.82;;
74269;SDS011;62754;48.252;11.654;2023-07-24T01:54:40;10.35;;;5.85;;
74269;SDS011;62754;48.252;11.654;2023-07-24T01:57:08;10.50;;;5.78;;
74269;SDS011;62754;48.252;11.654;2023-07-24T01:59:34;11.80;;;6.00;;
74269;SDS011;62754;48.252;11.654;2023-07-24T02:02:00;10.40;;;6.13;;
74269;SDS011;62754;48.252;11.654;2023-07-24T02:04:26;11.20;;;5.78;;
74269;SDS011;62754;48.252;11.654;2023-07-24T02:06:51;10.45;;;5.50;;
74269;SDS011;62754;48.252;11.654;2023-07-24T02:09:21;13.70;;;6.72;;
74269;SDS011;62754;48.252;11.654;2023-07-24T02:11:47;10.68;;;5.13;;
74269;SDS011;62754;48.252;11.654;2023-07-24T02:14:13;11.80;;;5.65;;
74269;SDS011;62754;48.252;11.654;2023-07-24T02:16:49;12.38;;;5.82;;
74269;SDS011;62754;48.252;11.654;2023-07-24T02:19:15;13.00;;;6.80;;
74269;SDS011;62754;48.252;11.654;2023-07-24T02:21:43;10.48;;;5.82;;
74269;SDS011;62754;48.252;11.654;2023-07-24T02:24:12;12.85;;;6.10;;
74269;SDS011;62754;48.252;11.654;2023-07-24T02:26:37;12.38;;;6.22;;
74269;SDS011;62754;48.252;11.654;2023-07-24T02:29:03;10.98;;;6.07;;
74269;SDS011;62754;48.252;11.654;2023-07-24T02:31:29;13.18;;;6.85;;
74269;SDS011;62754;48.252;11.654;2023-07-24T02:33:55;11.35;;;5.95;;
74269;SDS011;62754;48.252;11.654;2023-07-24T02:36:22;13.90;;;6.20;;
74269;SDS011;62754;48.252;11.654;2023-07-24T02:38:50;12.38;;;6.28;;
74269;SDS011;62754;48.252;11.654;2023-07-24T02:41:18;9.70;;;5.63;;
74269;SDS011;62754;48.252;11.654;2023-07-24T02:43:44;11.60;;;5.65;;
74269;SDS011;62754;48.252;11.654;2023-07-24T02:46:10;11.27;;;6.00;;
74269;SDS011;62754;48.252;11.654;2023-07-24T02:48:41;13.05;;;6.00;;
74269;SDS011;62754;48.252;11.654;2023-07-24T02:51:07;12.10;;;6.35;;
74269;SDS011;62754;48.252;11.654;2023-07-24T02:53:35;11.77;;;5.55;;
74269;SDS011;62754;48.252;11.654;2023-07-24T02:56:01;11.43;;;5.57;;
74269;SDS011;62754;48.252;11.654;2023-07-24T02:58:27;10.18;;;5.88;;
74269;SDS011;62754;48.252;11.654;2023-07-24T03:00:53;12.15;;;6.10;;
74269;SDS011;62754;48.252;11.654;2023-07-24T03:03:27;9.57;;;5.07;;
74269;SDS011;62754;48.252;11.654;2023-07-24T03:05:53;12.18;;;5.70;;
74269;SDS011;62754;48.252;11.654;2023-07-24T03:08:21;11.38;;;6.05;;
74269;SDS011;62754;48.252;11.654;2023-07-24T03:10:46;10.55;;;5.80;;
74269;SDS011;62754;48.252;11.654;2023-07-24T03:13:14;11.23;;;5.60;;
74269;SDS011;62754;48.252;11.654;2023-07-24T03:15:50;11.27;;;6.00;;
74269;SDS011;62754;48.252;11.654;2023-07-24T03:18:19;15.90;;;6.53;;
74269;SDS011;62754;48.252;11.654;2023-07-24T03:20:45;17.80;;;6.75;;
74269;SDS011;62754;48.252;11.654;2023-07-24T03:23:13;15.35;;;7.15;;
74269;SDS011;62754;48.252;11.654;2023-07-24T03:25:39;15.43;;;6.75;;
74269;SDS011;62754;48.252;11.654;2023-07-24T03:28:09;13.77;;;7.05;;
74269;SDS011;62754;48.252;11.654;2023-07-24T03:30:35;16.63;;;7.00;;
74269;SDS011;62754;48.252;11.654;2023-07-24T03:33:04;11.25;;;6.70;;
74269;SDS011;62754;48.252;11.654;2023-07-24T03:35:30;11.18;;;6.93;;
74269;SDS011;62754;48.252;11.654;2023-07-24T03:37:55;13.65;;;6.75;;
74269;SDS011;62754;48.252;11.654;2023-07-24T03:40:26;16.02;;;7.97;;
74269;SDS011;62754;48.252;11.654;2023-07-24T03:42:51;14.95;;;7.25;;
74269;SDS011;62754;48.252;11.654;2023-07-24T03:45:22;13.57;;;7.05;;
74269;SDS011;62754;48.252;11.654;2023-07-24T03:47:48;15.10;;;7.40;;
74269;SDS011;62754;48.252;11.654;2023-07-24T03:50:13;13.38;;;7.15;;
74269;SDS011;62754;48.252;11.654;2023-07-24T03:52:39;14.52;;;7.45;;
74269;SDS011;62754;48.252;11.654;2023-07-24T03:55:07;14.68;;;7.50;;
74269;SDS011;62754;48.252;11.654;2023-07-24T03:57:33;13.57;;;7.32;;
74269;SDS011;62754;48.252;11.654;2023-07-24T03:59:59;13.55;;;6.93;;
74269;SDS011;62754;48.252;11.654;2023-07-24T04:02:27;13.38;;;7.82;;
74269;SDS011;62754;48.252;11.654;2023-07-24T04:04:55;15.35;;;7.38;;
74269;SDS011;62754;48.252;11.654;2023-07-24T04:07:21;14.20;;;7.57;;
74269;SDS011;62754;48.252;11.654;2023-07-24T04:09:47;15.20;;;7.45;;
74269;SDS011;62754;48.252;11.654;2023-07-24T04:12:15;16.08;;;7.68;;
74269;SDS011;62754;48.252;11.654;2023-07-24T04:14:40;12.68;;;7.35;;
74269;SDS011;62754;48.252;11.654;2023-07-24T04:17:09;13.98;;;7.70;;
74269;SDS011;62754;48.252;11.654;2023-07-24T04:19:34;12.85;;;7.68;;
74269;SDS011;62754;48.252;11.654;2023-07-24T04:22:02;13.05;;;7.57;;
74269;SDS011;62754;48.252;11.654;2023-07-24T04:24:28;13.38;;;7.13;;
74269;SDS011;62754;48.252;11.654;2023-07-24T04:26:54;15.18;;;7.63;;
74269;SDS011;62754;48.252;11.654;2023-07-24T04:29:19;15.52;;;7.70;;
74269;SDS011;62754;48.252;11.654;2023-07-24T04:31:45;13.85;;;8.13;;
74269;SDS011;62754;48.252;11.654;2023-07-24T04:34:13;13.32;;;7.40;;
74269;SDS011;62754;48.252;11.654;2023-07-24T04:36:39;12.30;;;6.43;;
74269;SDS011;62754;48.252;11.654;2023-07-24T04:39:07;15.32;;;8.02;;
74269;SDS011;62754;48.252;11.654;2023-07-24T04:41:33;13.57;;;7.50;;
74269;SDS011;62754;48.252;11.654;2023-07-24T04:44:01;14.15;;;7.68;;
74269;SDS011;62754;48.252;11.654;2023-07-24T04:46:27;15.80;;;7.63;;
74269;SDS011;62754;48.252;11.654;2023-07-24T04:48:52;16.35;;;7.65;;
74269;SDS011;62754;48.252;11.654;2023-07-24T04:51:20;13.50;;;7.68;;
74269;SDS011;62754;48.252;11.654;2023-07-24T04:53:46;15.82;;;8.07;;
74269;SDS011;62754;48.252;11.654;2023-07-24T04:56:12;13.20;;;7.10;;
74269;SDS011;62754;48.252;11.654;2023-07-24T04:58:37;13.18;;;7.43;;
74269;SDS011;62754;48.252;11.654;2023-07-24T05:01:05;12.82;;;7.47;;
74269;SDS011;62754;48.252;11.654;2023-07-24T05:03:31;13.63;;;8.15;;
74269;SDS011;62754;48.252;11.654;2023-07-24T05:05:57;12.45;;;7.43;;
74269;SDS011;62754;48.252;11.654;2023-07-24T05:08:25;13.32;;;8.15;;
74269;SDS011;62754;48.252;11.654;2023-07-24T05:10:55;12.88;;;7.75;;
74269;SDS011;62754;48.252;11.654;2023-07-24T05:13:21;15.57;;;7.32;;
74269;SDS011;62754;48.252;11.654;2023-07-24T05:15:49;14.60;;;7.65;;
74269;SDS011;62754;48.252;11.654;2023-07-24T05:18:15;16.13;;;7.78;;
74269;SDS011;62754;48.252;11.654;2023-07-24T05:20:49;13.35;;;7.15;;
74269;SDS011;62754;48.252;11.654;2023-07-24T05:23:15;15.77;;;7.32;;
74269;SDS011;62754;48.252;11.654;2023-07-24T05:25:46;14.63;;;8.30;;
74269;SDS011;62754;48.252;11.654;2023-07-24T05:28:12;15.15;;;7.40;;
74269;SDS011;62754;48.252;11.654;2023-07-24T05:30:40;16.73;;;7.75;;
74269;SDS011;62754;48.252;11.654;2023-07-24T05:33:08;16.15;;;8.50;;
74269;SDS011;62754;48.252;11.654;2023-07-24T05:35:33;13.40;;;7.40;;
74269;SDS011;62754;48.252;11.654;2023-07-24T05:37:59;12.80;;;7.03;;
74269;SDS011;62754;48.252;11.654;2023-07-24T05:40:25;14.63;;;7.97;;
74269;SDS011;62754;48.252;11.654;2023-07-24T05:42:51;12.32;;;6.95;;
74269;SDS011;62754;48.252;11.654;2023-07-24T05:45:19;12.20;;;7.30;;
74269;SDS011;62754;48.252;11.654;2023-07-24T05:47:44;13.70;;;7.38;;
74269;SDS011;62754;48.252;11.654;2023-07-24T05:50:10;14.05;;;7.32;;
74269;SDS011;62754;48.252;11.654;2023-07-24T05:52:39;13.77;;;6.82;;
74269;SDS011;62754;48.252;11.654;2023-07-24T05:55:07;14.02;;;7.38;;
74269;SDS011;62754;48.252;11.654;2023-07-24T05:57:33;13.50;;;7.28;;
74269;SDS011;62754;48.252;11.654;2023-07-24T06:00:04;13.00;;;7.68;;
74269;SDS011;62754;48.252;11.654;2023-07-24T06:02:31;14.00;;;7.43;;
74269;SDS011;62754;48.252;11.654;2023-07-24T06:04:59;10.82;;;6.40;;
74269;SDS011;62754;48.252;11.654;2023-07-24T06:07:25;12.00;;;7.00;;
74269;SDS011;62754;48.252;11.654;2023-07-24T06:09:51;9.93;;;5.90;;
74269;SDS011;62754;48.252;11.654;2023-07-24T06:12:16;11.80;;;6.45;;
74269;SDS011;62754;48.252;11.654;2023-07-24T06:14:42;17.10;;;7.00;;
74269;SDS011;62754;48.252;11.654;2023-07-24T06:17:13;12.93;;;6.95;;
74269;SDS011;62754;48.252;11.654;2023-07-24T06:19:38;10.65;;;6.13;;
74269;SDS011;62754;48.252;11.654;2023-07-24T06:22:04;12.23;;;7.35;;
74269;SDS011;62754;48.252;11.654;2023-07-24T06:24:30;9.48;;;5.75;;
74269;SDS011;62754;48.252;11.654;2023-07-24T06:26:56;11.82;;;6.32;;
74269;SDS011;62754;48.252;11.654;2023-07-24T06:29:21;10.55;;;6.35;;
74269;SDS011;62754;48.252;11.654;2023-07-24T06:31:50;11.32;;;5.97;;
74269;SDS011;62754;48.252;11.654;2023-07-24T06:34:18;10.00;;;6.03;;
74269;SDS011;62754;48.252;11.654;2023-07-24T06:36:43;10.75;;;6.38;;
74269;SDS011;62754;48.252;11.654;2023-07-24T06:39:09;9.63;;;5.65;;
74269;SDS011;62754;48.252;11.654;2023-07-24T06:41:35;11.65;;;5.78;;
74269;SDS011;62754;48.252;11.654;2023-07-24T06:44:01;11.30;;;5.78;;
74269;SDS011;62754;48.252;11.654;2023-07-24T06:46:29;12.18;;;5.78;;
74269;SDS011;62754;48.252;11.654;2023-07-24T06:48:58;11.32;;;5.78;;
74269;SDS011;62754;48.252;11.654;2023-07-24T06:51:24;10.02;;;6.05;;
74269;SDS011;62754;48.252;11.654;2023-07-24T06:53:54;10.10;;;5.85;;
74269;SDS011;62754;48.252;11.654;2023-07-24T06:56:22;12.50;;;6.45;;
74269;SDS011;62754;48.252;11.654;2023-07-24T06:58:52;12.52;;;5.95;;
74269;SDS011;62754;48.252;11.654;2023-07-24T07:01:20;12.18;;;6.05;;
74269;SDS011;62754;48.252;11.654;2023-07-24T07:03:49;11.43;;;6.40;;
74269;SDS011;62754;48.252;11.654;2023-07-24T07:06:17;10.85;;;6.13;;
74269;SDS011;62754;48.252;11.654;2023-07-24T07:08:43;11.07;;;6.32;;
74269;SDS011;62754;48.252;11.654;2023-07-24T07:11:08;12.20;;;6.07;;
74269;SDS011;62754;48.252;11.654;2023-07-24T07:13:34;9.98;;;5.82;;
74269;SDS011;62754;48.252;11.654;2023-07-24T07:16:02;10.82;;;5.97;;
74269;SDS011;62754;48.252;11.654;2023-07-24T07:18:28;10.18;;;6.32;;
74269;SDS011;62754;48.252;11.654;2023-07-24T07:20:58;10.32;;;5.78;;
74269;SDS011;62754;48.252;11.654;2023-07-24T07:23:24;11.05;;;6.10;;
74269;SDS011;62754;48.252;11.654;2023-07-24T07:25:54;10.60;;;6.25;;
74269;SDS011;62754;48.252;11.654;2023-07-24T07:28:20;10.60;;;5.70;;
74269;SDS011;62754;48.252;11.654;2023-07-24T07:30:51;9.85;;;5.90;;
74269;SDS011;62754;48.252;11.654;2023-07-24T07:33:17;9.73;;;6.10;;
74269;SDS011;62754;48.252;11.654;2023-07-24T07:35:45;10.68;;;6.13;;
74269;SDS011;62754;48.252;11.654;2023-07-24T07:38:13;12.18;;;5.93;;
74269;SDS011;62754;48.252;11.654;2023-07-24T07:40:39;11.43;;;6.25;;
74269;SDS011;62754;48.252;11.654;2023-07-24T07:43:07;10.13;;;5.63;;
74269;SDS011;62754;48.252;11.654;2023-07-24T07:45:35;10.63;;;5.55;;
74269;SDS011;62754;48.252;11.654;2023-07-24T07:48:01;9.30;;;5.38;;
74269;SDS011;62754;48.252;11.654;2023-07-24T07:50:27;9.27;;;5.55;;
74269;SDS011;62754;48.252;11.654;2023-07-24T07:52:58;11.77;;;5.90;;
74269;SDS011;62754;48.252;11.654;2023-07-24T07:55:26;12.32;;;6.40;;
74269;SDS011;62754;48.252;11.654;2023-07-24T07:57:54;14.93;;;6.47;;
74269;SDS011;62754;48.252;11.654;2023-07-24T08:00:22;10.77;;;6.25;;
74269;SDS011;62754;48.252;11.654;2023-07-24T08:02:52;13.75;;;6.60;;
74269;SDS011;62754;48.252;11.654;2023-07-24T08:05:20;12.57;;;6.10;;
74269;SDS011;62754;48.252;11.654;2023-07-24T08:07:48;12.85;;;6.57;;
74269;SDS011;62754;48.252;11.654;2023-07-24T08:10:14;11.52;;;6.55;;
74269;SDS011;62754;48.252;11.654;2023-07-24T08:12:40;10.88;;;6.28;;
74269;SDS011;62754;48.252;11.654;2023-07-24T08:15:06;15.50;;;6.90;;
74269;SDS011;62754;48.252;11.654;2023-07-24T08:19:58;10.80;;;5.90;;
74269;SDS011;62754;48.252;11.654;2023-07-24T08:22:23;10.60;;;6.00;;
74269;SDS011;62754;48.252;11.654;2023-07-24T08:24:51;14.32;;;6.90;;
74269;SDS011;62754;48.252;11.654;2023-07-24T08:27:17;11.93;;;6.07;;
74269;SDS011;62754;48.252;11.654;2023-07-24T08:29:45;10.85;;;5.75;;
74269;SDS011;62754;48.252;11.654;2023-07-24T08:32:11;12.98;;;6.22;;
74269;SDS011;62754;48.252;11.654;2023-07-24T08:34:41;13.23;;;5.88;;
74269;SDS011;62754;48.252;11.654;2023-07-24T08:37:07;9.05;;;5.18;;
74269;SDS011;62754;48.252;11.654;2023-07-24T08:39:37;12.68;;;6.10;;
74269;SDS011;62754;48.252;11.654;2023-07-24T08:42:10;11.93;;;6.68;;
74269;SDS011;62754;48.252;11.654;2023-07-24T08:44:37;14.20;;;8.30;;
74269;SDS011;62754;48.252;11.654;2023-07-24T08:47:06;10.82;;;6.03;;
74269;SDS011;62754;48.252;11.654;2023-07-24T08:49:37;11.93;;;6.22;;
74269;SDS011;62754;48.252;11.654;2023-07-24T08:52:07;16.98;;;7.60;;
74269;SDS011;62754;48.252;11.654;2023-07-24T08:54:35;11.50;;;6.28;;
74269;SDS011;62754;48.252;11.654;2023-07-24T08:57:02;9.27;;;5.38;;
74269;SDS011;62754;48.252;11.654;2023-07-24T09:01:53;9.32;;;5.05;;
74269;SDS011;62754;48.252;11.654;2023-07-24T09:04:19;9.48;;;5.13;;
74269;SDS011;62754;48.252;11.654;2023-07-24T09:06:45;8.98;;;5.40;;
74269;SDS011;62754;48.252;11.654;2023-07-24T09:09:14;12.15;;;5.70;;
74269;SDS011;62754;48.252;11.654;2023-07-24T09:11:48;9.43;;;4.88;;
74269;SDS011;62754;48.252;11.654;2023-07-24T09:17:08;8.88;;;5.35;;
74269;SDS011;62754;48.252;11.654;2023-07-24T09:19:37;9.23;;;5.05;;
74269;SDS011;62754;48.252;11.654;2023-07-24T09:24:56;10.23;;;5.43;;
74269;SDS011;62754;48.252;11.654;2023-07-24T09:27:28;9.63;;;5.07;;
74269;SDS011;62754;48.252;11.654;2023-07-24T09:29:58;9.38;;;5.10;;
74269;SDS011;62754;48.252;11.654;2023-07-24T09:32:26;10.27;;;4.80;;
74269;SDS011;62754;48.252;11.654;2023-07-24T09:34:54;8.98;;;5.40;;
74269;SDS011;62754;48.252;11.654;2023-07-24T09:39:56;9.93;;;5.47;;
74269;SDS011;62754;48.252;11.654;2023-07-24T09:42:30;9.85;;;4.82;;
74269;SDS011;62754;48.252;11.654;2023-07-24T09:45:00;11.07;;;5.03;;
74269;SDS011;62754;48.252;11.654;2023-07-24T09:47:28;9.32;;;5.20;;
74269;SDS011;62754;48.252;11.654;2023-07-24T09:49:54;7.95;;;4.70;;
74269;SDS011;62754;48.252;11.654;2023-07-24T09:52:20;9.32;;;4.93;;
74269;SDS011;62754;48.252;11.654;2023-07-24T09:54:59;9.50;;;4.72;;
74269;SDS011;62754;48.252;11.654;2023-07-24T09:57:29;7.80;;;4.57;;
74269;SDS011;62754;48.252;11.654;2023-07-24T10:02:23;8.73;;;4.53;;
74269;SDS011;62754;48.252;11.654;2023-07-24T10:04:55;8.45;;;4.53;;
74269;SDS011;62754;48.252;11.654;2023-07-24T10:07:22;9.20;;;4.50;;
74269;SDS011;62754;48.252;11.654;2023-07-24T10:09:50;7.80;;;4.18;;
74269;SDS011;62754;48.252;11.654;2023-07-24T10:12:17;7.93;;;4.40;;
74269;SDS011;62754;48.252;11.654;2023-07-24T10:14:47;7.60;;;4.28;;
74269;SDS011;62754;48.252;11.654;2023-07-24T10:17:24;7.30;;;4.05;;
74269;SDS011;62754;48.252;11.654;2023-07-24T10:20:01;8.63;;;4.15;;
74269;SDS011;62754;48.252;11.654;2023-07-24T10:22:31;6.10;;;3.67;;
74269;SDS011;62754;48.252;11.654;2023-07-24T10:25:01;6.82;;;3.92;;
74269;SDS011;62754;48.252;11.654;2023-07-24T10:27:31;7.85;;;3.97;;
74269;SDS011;62754;48.252;11.654;2023-07-24T10:30:00;7.93;;;3.83;;
74269;SDS011;62754;48.252;11.654;2023-07-24T10:32:27;7.38;;;3.85;;
74269;SDS011;62754;48.252;11.654;2023-07-24T10:34:59;7.43;;;4.30;;
74269;SDS011;62754;48.252;11.654;2023-07-24T10:37:35;7.25;;;3.85;;
74269;SDS011;62754;48.252;11.654;2023-07-24T10:40:03;6.70;;;3.83;;
74269;SDS011;62754;48.252;11.654;2023-07-24T10:42:30;6.50;;;3.85;;
74269;SDS011;62754;48.252;11.654;2023-07-24T10:45:08;7.30;;;3.65;;
74269;SDS011;62754;48.252;11.654;2023-07-24T10:47:34;7.47;;;3.95;;
74269;SDS011;62754;48.252;11.654;2023-07-24T10:50:05;7.88;;;4.15;;
74269;SDS011;62754;48.252;11.654;2023-07-24T10:52:33;6.43;;;3.72;;
74269;SDS011;62754;48.252;11.654;2023-07-24T10:55:02;7.90;;;3.75;;
74269;SDS011;62754;48.252;11.654;2023-07-24T10:57:29;6.95;;;3.95;;
74269;SDS011;62754;48.252;11.654;2023-07-24T10:59:58;6.93;;;3.72;;
74269;SDS011;62754;48.252;11.654;2023-07-24T11:02:27;6.18;;;3.45;;
74269;SDS011;62754;48.252;11.654;2023-07-24T11:04:53;7.68;;;4.05;;
74269;SDS011;62754;48.252;11.654;2023-07-24T11:07:23;5.57;;;3.05;;
74269;SDS011;62754;48.252;11.654;2023-07-24T11:09:52;10.85;;;3.40;;
74269;SDS011;62754;48.252;11.654;2023-07-24T11:12:22;6.30;;;3.70;;
74269;SDS011;62754;48.252;11.654;2023-07-24T11:14:51;6.22;;;3.40;;
74269;SDS011;62754;48.252;11.654;2023-07-24T11:17:19;7.60;;;3.40;;
74269;SDS011;62754;48.252;11.654;2023-07-24T11:22:11;6.25;;;3.45;;
74269;SDS011;62754;48.252;11.654;2023-07-24T11:24:43;7.20;;;3.10;;
74269;SDS011;62754;48.252;11.654;2023-07-24T11:27:12;6.00;;;3.20;;
74269;SDS011;62754;48.252;11.654;2023-07-24T11:29:39;5.90;;;3.20;;
74269;SDS011;62754;48.252;11.654;2023-07-24T11:32:05;6.57;;;3.20;;
74269;SDS011;62754;48.252;11.654;2023-07-24T11:34:31;5.93;;;2.88;;
74269;SDS011;62754;48.252;11.654;2023-07-24T11:36:58;4.72;;;2.85;;
74269;SDS011;62754;48.252;11.654;2023-07-24T11:39:26;5.88;;;2.75;;
74269;SDS011;62754;48.252;11.654;2023-07-24T11:41:52;5.32;;;2.67;;
74269;SDS011;62754;48.252;11.654;2023-07-24T11:44:27;5.15;;;2.97;;
74269;SDS011;62754;48.252;11.654;2023-07-24T11:47:05;5.18;;;2.70;;
74269;SDS011;62754;48.252;11.654;2023-07-24T11:49:31;4.82;;;2.92;;
74269;SDS011;62754;48.252;11.654;2023-07-24T11:52:05;5.18;;;2.92;;
74269;SDS011;62754;48.252;11.654;2023-07-24T11:54:37;5.00;;;3.10;;
74269;SDS011;62754;48.252;11.654;2023-07-24T11:57:15;5.47;;;3.22;;
74269;SDS011;62754;48.252;11.654;2023-07-24T11:59:43;4.50;;;2.80;;
74269;SDS011;62754;48.252;11.654;2023-07-24T12:02:10;4.45;;;2.50;;
74269;SDS011;62754;48.252;11.654;2023-07-24T12:04:36;4.60;;;2.60;;
74269;SDS011;62754;48.252;11.654;2023-07-24T12:07:09;5.32;;;3.30;;
74269;SDS011;62754;48.252;11.654;2023-07-24T12:09:34;4.60;;;2.80;;
74269;SDS011;62754;48.252;11.654;2023-07-24T12:12:03;6.18;;;3.45;;
74269;SDS011;62754;48.252;11.654;2023-07-24T12:14:31;5.90;;;3.40;;
74269;SDS011;62754;48.252;11.654;2023-07-24T12:17:03;6.03;;;3.22;;
74269;SDS011;62754;48.252;11.654;2023-07-24T12:19:29;5.93;;;3.20;;
74269;SDS011;62754;48.252;11.654;2023-07-24T12:24:23;6.10;;;3.53;;
74269;SDS011;62754;48.252;11.654;2023-07-24T12:26:48;6.25;;;3.28;;
74269;SDS011;62754;48.252;11.654;2023-07-24T12:31:40;5.57;;;3.40;;
74269;SDS011;62754;48.252;11.654;2023-07-24T12:36:31;8.30;;;3.42;;
74269;SDS011;62754;48.252;11.654;2023-07-24T12:38:57;9.07;;;3.83;;
74269;SDS011;62754;48.252;11.654;2023-07-24T12:41:22;8.05;;;4.25;;
74269;SDS011;62754;48.252;11.654;2023-07-24T12:43:50;7.38;;;4.00;;
74269;SDS011;62754;48.252;11.654;2023-07-24T12:46:18;8.00;;;4.40;;
74269;SDS011;62754;48.252;11.654;2023-07-24T12:48:46;6.93;;;3.83;;
74269;SDS011;62754;48.252;11.654;2023-07-24T12:51:12;6.97;;;3.75;;
74269;SDS011;62754;48.252;11.654;2023-07-24T12:53:38;6.65;;;3.58;;
74269;SDS011;62754;48.252;11.654;2023-07-24T12:56:05;5.72;;;3.70;;
74269;SDS011;62754;48.252;11.654;2023-07-24T12:58:32;5.82;;;3.78;;
74269;SDS011;62754;48.252;11.654;2023-07-24T13:01:02;5.88;;;3.70;;
74269;SDS011;62754;48.252;11.654;2023-07-24T13:03:28;6.75;;;3.67;;
74269;SDS011;62754;48.252;11.654;2023-07-24T13:05:56;6.78;;;3.75;;
74269;SDS011;62754;48.252;11.654;2023-07-24T13:08:22;6.18;;;3.40;;
74269;SDS011;62754;48.252;11.654;2023-07-24T13:10:48;5.57;;;3.30;;
74269;SDS011;62754;48.252;11.654;2023-07-24T13:13:13;7.45;;;2.92;;
74269;SDS011;62754;48.252;11.654;2023-07-24T13:15:39;6.35;;;3.70;;
74269;SDS011;62754;48.252;11.654;2023-07-24T13:18:07;7.03;;;3.78;;
74269;SDS011;62754;48.252;11.654;2023-07-24T13:20:33;5.45;;;2.95;;
74269;SDS011;62754;48.252;11.654;2023-07-24T13:22:59;7.35;;;3.20;;
74269;SDS011;62754;48.252;11.654;2023-07-24T13:25:24;6.57;;;3.40;;
74269;SDS011;62754;48.252;11.654;2023-07-24T13:27:50;6.78;;;3.65;;
74269;SDS011;62754;48.252;11.654;2023-07-24T13:30:18;6.40;;;3.33;;
74269;SDS011;62754;48.252;11.654;2023-07-24T13:32:44;7.55;;;3.13;;
74269;SDS011;62754;48.252;11.654;2023-07-24T13:35:10;6.63;;;3.38;;
74269;SDS011;62754;48.252;11.654;2023-07-24T13:37:38;6.63;;;3.53;;
74269;SDS011;62754;48.252;11.654;2023-07-24T13:40:04;6.32;;;3.20;;
74269;SDS011;62754;48.252;11.654;2023-07-24T13:42:33;8.60;;;3.70;;
74269;SDS011;62754;48.252;11.654;2023-07-24T13:44:59;6.57;;;3.50;;
74269;SDS011;62754;48.252;11.654;2023-07-24T13:47:25;6.07;;;3.47;;
74269;SDS011;62754;48.252;11.654;2023-07-24T13:49:50;7.68;;;3.50;;
74269;SDS011;62754;48.252;11.654;2023-07-24T13:52:18;6.40;;;3.63;;
74269;SDS011;62754;48.252;11.654;2023-07-24T13:54:46;8.68;;;4.55;;
74269;SDS011;62754;48.252;11.654;2023-07-24T13:57:12;12.05;;;6.25;;
74269;SDS011;62754;48.252;11.654;2023-07-24T13:59:38;7.43;;;3.80;;
74269;SDS011;62754;48.252;11.654;2023-07-24T14:02:04;6.65;;;3.83;;
74269;SDS011;62754;48.252;11.654;2023-07-24T14:04:32;7.22;;;3.40;;
74269;SDS011;62754;48.252;11.654;2023-07-24T14:06:58;6.10;;;3.22;;
74269;SDS011;62754;48.252;11.654;2023-07-24T14:09:26;7.40;;;3.25;;
74269;SDS011;62754;48.252;11.654;2023-07-24T14:11:52;7.53;;;3.50;;
74269;SDS011;62754;48.252;11.654;2023-07-24T14:14:18;6.55;;;3.25;;
74269;SDS011;62754;48.252;11.654;2023-07-24T14:16:43;7.85;;;3.65;;
74269;SDS011;62754;48.252;11.654;2023-07-24T14:19:11;5.93;;;2.97;;
74269;SDS011;62754;48.252;11.654;2023-07-24T14:21:39;5.05;;;3.05;;
74269;SDS011;62754;48.252;11.654;2023-07-24T14:24:05;7.40;;;3.42;;
74269;SDS011;62754;48.252;11.654;2023-07-24T14:26:31;8.35;;;3.55;;
74269;SDS011;62754;48.252;11.654;2023-07-24T14:28:57;6.00;;;3.15;;
74269;SDS011;62754;48.252;11.654;2023-07-24T14:31:23;4.70;;;2.92;;
74269;SDS011;62754;48.252;11.654;2023-07-24T14:33:54;4.50;;;2.90;;
74269;SDS011;62754;48.252;11.654;2023-07-24T14:36:25;5.40;;;3.08;;
74269;SDS011;62754;48.252;11.654;2023-07-24T14:38:53;5.93;;;3.10;;
74269;SDS011;62754;48.252;11.654;2023-07-24T14:43:46;6.03;;;3.10;;
74269;SDS011;62754;48.252;11.654;2023-07-24T14:46:14;5.57;;;2.80;;
74269;SDS011;62754;48.252;11.654;2023-07-24T14:51:06;5.63;;;2.78;;
74269;SDS011;62754;48.252;11.654;2023-07-24T14:53:34;5.63;;;3.00;;
74269;SDS011;62754;48.252;11.654;2023-07-24T14:58:25;5.50;;;2.85;;
74269;SDS011;62754;48.252;11.654;2023-07-24T15:00:54;5.47;;;2.42;;
74269;SDS011;62754;48.252;11.654;2023-07-24T15:03:19;5.00;;;2.35;;
74269;SDS011;62754;48.252;11.654;2023-07-24T15:05:45;4.00;;;2.20;;